CheckWX is a tool to help pilots better visualize weather data.  It is not intended as a substitute for an official pre-flight weather briefing.

06:56:33 UTC

LATI TAF
Tirana International Mother Teresa Airport
Tirana, Albania
TAF LATI 261100Z 2612/2712 34015KT 9999 FEW030CB SCT070 TX27/2712Z TN10/2704Z TEMPO 2612/2616 02014G25KT TSRA SCT030CB BECMG 2618/2620 VRB04KT SCT090 BECMG 2710/2712 34014KT FEW030CB

May-26@
12:00 UTC

May-26 @ 12:00 UTC

May-26@
18:00 UTC

May-26 @ 18:00 UTC

TAF LATI 261100Z 2612/2712 34015KT 9999 FEW030CB SCT070 TX27/2712Z TN10/2704Z

Expired

Wind
  • 340° at 15 KTS
Cloud Levels
  • Few at 3,000' AGL
  • Scattered at 7,000' AGL

May-26@
12:00 UTC

May-26 @ 12:00 UTC

May-26@
16:00 UTC

May-26 @ 16:00 UTC

TEMPO 2612/2616 02014G25KT TSRA SCT030CB

Expired

Wind
  • 020° at 14 KTS
  • {Gusting to 25 KTS
Conditions
Thunderstorm, Rain
Cloud Levels
  • Scattered at 3,000' AGL

May-26@
18:00 UTC

May-26 @ 18:00 UTC

May-27@
10:00 UTC

May-27 @ 10:00 UTC

BECMG 2618/2620 VRB04KT SCT090

Becoming

Becoming Conditions expected by Tue, May 26, 2020 @ 20:00 UTC

Wind
  • Variable at 4 KTS
Cloud Levels
  • Scattered at 9,000' AGL

May-27@
10:00 UTC

May-27 @ 10:00 UTC

May-27@
12:00 UTC

May-27 @ 12:00 UTC

BECMG 2710/2712 34014KT FEW030CB

Becoming

Becoming Conditions expected by Wed, May 27, 2020 @ 12:00 UTC

Wind
  • 340° at 14 KTS
Cloud Levels
  • Few at 3,000' AGL